sensor_id;sensor_type;location;lat;lon;timestamp;P1;durP1;ratioP1;P2;durP2;ratioP2
4468;SDS011;2247;42.666;23.292;2022-11-20T00:00:40;6.13;;;1.53;;
4468;SDS011;2247;42.666;23.292;2022-11-20T00:03:07;3.83;;;1.43;;
4468;SDS011;2247;42.666;23.292;2022-11-20T00:05:34;5.27;;;1.80;;
4468;SDS011;2247;42.666;23.292;2022-11-20T00:08:01;5.07;;;1.43;;
4468;SDS011;2247;42.666;23.292;2022-11-20T00:10:29;2.93;;;1.67;;
4468;SDS011;2247;42.666;23.292;2022-11-20T00:12:57;3.07;;;1.20;;
4468;SDS011;2247;42.666;23.292;2022-11-20T00:15:24;3.67;;;1.30;;
4468;SDS011;2247;42.666;23.292;2022-11-20T00:17:51;2.50;;;1.33;;
4468;SDS011;2247;42.666;23.292;2022-11-20T00:20:18;2.43;;;1.20;;
4468;SDS011;2247;42.666;23.292;2022-11-20T00:22:45;4.13;;;1.37;;
4468;SDS011;2247;42.666;23.292;2022-11-20T00:25:12;1.50;;;1.30;;
4468;SDS011;2247;42.666;23.292;2022-11-20T00:27:41;2.97;;;1.37;;
4468;SDS011;2247;42.666;23.292;2022-11-20T00:30:08;2.30;;;1.30;;
4468;SDS011;2247;42.666;23.292;2022-11-20T00:32:36;2.10;;;1.17;;
4468;SDS011;2247;42.666;23.292;2022-11-20T00:35:04;1.33;;;1.17;;
4468;SDS011;2247;42.666;23.292;2022-11-20T00:37:31;2.67;;;1.20;;
4468;SDS011;2247;42.666;23.292;2022-11-20T00:39:58;1.97;;;1.10;;
4468;SDS011;2247;42.666;23.292;2022-11-20T00:42:25;4.93;;;1.20;;
4468;SDS011;2247;42.666;23.292;2022-11-20T00:44:54;2.40;;;1.13;;
4468;SDS011;2247;42.666;23.292;2022-11-20T00:47:21;1.30;;;1.17;;
4468;SDS011;2247;42.666;23.292;2022-11-20T00:49:48;6.27;;;1.43;;
4468;SDS011;2247;42.666;23.292;2022-11-20T00:52:15;2.93;;;1.30;;
4468;SDS011;2247;42.666;23.292;2022-11-20T00:54:42;4.53;;;1.20;;
4468;SDS011;2247;42.666;23.292;2022-11-20T00:57:09;3.07;;;1.27;;
4468;SDS011;2247;42.666;23.292;2022-11-20T00:59:36;3.00;;;1.47;;
4468;SDS011;2247;42.666;23.292;2022-11-20T01:02:04;4.60;;;1.20;;
4468;SDS011;2247;42.666;23.292;2022-11-20T01:04:31;13.47;;;1.20;;
4468;SDS011;2247;42.666;23.292;2022-11-20T01:06:58;1.60;;;1.03;;
4468;SDS011;2247;42.666;23.292;2022-11-20T01:09:25;3.37;;;1.10;;
4468;SDS011;2247;42.666;23.292;2022-11-20T01:11:52;2.40;;;1.57;;
4468;SDS011;2247;42.666;23.292;2022-11-20T01:14:19;2.00;;;1.07;;
4468;SDS011;2247;42.666;23.292;2022-11-20T01:16:48;1.77;;;1.67;;
4468;SDS011;2247;42.666;23.292;2022-11-20T01:19:18;2.07;;;1.00;;
4468;SDS011;2247;42.666;23.292;2022-11-20T01:21:48;1.93;;;1.10;;
4468;SDS011;2247;42.666;23.292;2022-11-20T01:24:17;2.50;;;1.37;;
4468;SDS011;2247;42.666;23.292;2022-11-20T01:26:46;1.13;;;1.00;;
4468;SDS011;2247;42.666;23.292;2022-11-20T01:29:15;2.00;;;1.17;;
4468;SDS011;2247;42.666;23.292;2022-11-20T01:31:43;2.70;;;1.10;;
4468;SDS011;2247;42.666;23.292;2022-11-20T01:34:12;1.10;;;1.00;;
4468;SDS011;2247;42.666;23.292;2022-11-20T01:36:42;1.30;;;0.90;;
4468;SDS011;2247;42.666;23.292;2022-11-20T01:39:10;1.13;;;0.93;;
4468;SDS011;2247;42.666;23.292;2022-11-20T01:41:40;2.57;;;1.00;;
4468;SDS011;2247;42.666;23.292;2022-11-20T01:47:12;2.40;;;1.00;;
4468;SDS011;2247;42.666;23.292;2022-11-20T01:49:42;1.10;;;1.00;;
4468;SDS011;2247;42.666;23.292;2022-11-20T01:52:17;4.03;;;1.23;;
4468;SDS011;2247;42.666;23.292;2022-11-20T01:54:46;2.03;;;1.00;;
4468;SDS011;2247;42.666;23.292;2022-11-20T01:57:18;1.43;;;1.00;;
4468;SDS011;2247;42.666;23.292;2022-11-20T01:59:47;1.50;;;1.13;;
4468;SDS011;2247;42.666;23.292;2022-11-20T02:02:19;3.03;;;1.30;;
4468;SDS011;2247;42.666;23.292;2022-11-20T02:04:48;5.33;;;0.90;;
4468;SDS011;2247;42.666;23.292;2022-11-20T02:07:19;4.83;;;1.20;;
4468;SDS011;2247;42.666;23.292;2022-11-20T02:09:47;2.57;;;1.00;;
4468;SDS011;2247;42.666;23.292;2022-11-20T02:12:14;2.20;;;1.33;;
4468;SDS011;2247;42.666;23.292;2022-11-20T02:14:55;5.27;;;1.17;;
4468;SDS011;2247;42.666;23.292;2022-11-20T02:17:23;2.57;;;1.00;;
4468;SDS011;2247;42.666;23.292;2022-11-20T02:19:51;4.87;;;1.33;;
4468;SDS011;2247;42.666;23.292;2022-11-20T02:22:21;2.87;;;1.40;;
4468;SDS011;2247;42.666;23.292;2022-11-20T02:24:57;1.37;;;1.03;;
4468;SDS011;2247;42.666;23.292;2022-11-20T02:27:27;3.27;;;1.10;;
4468;SDS011;2247;42.666;23.292;2022-11-20T02:29:56;1.03;;;0.90;;
4468;SDS011;2247;42.666;23.292;2022-11-20T02:32:28;3.93;;;1.20;;
4468;SDS011;2247;42.666;23.292;2022-11-20T02:34:56;1.67;;;1.10;;
4468;SDS011;2247;42.666;23.292;2022-11-20T02:37:26;2.10;;;1.23;;
4468;SDS011;2247;42.666;23.292;2022-11-20T02:40:00;1.40;;;1.20;;
4468;SDS011;2247;42.666;23.292;2022-11-20T02:42:28;1.10;;;1.00;;
4468;SDS011;2247;42.666;23.292;2022-11-20T02:44:54;2.77;;;1.00;;
4468;SDS011;2247;42.666;23.292;2022-11-20T02:47:21;1.80;;;1.10;;
4468;SDS011;2247;42.666;23.292;2022-11-20T02:49:48;4.47;;;1.33;;
4468;SDS011;2247;42.666;23.292;2022-11-20T02:52:15;1.87;;;1.00;;
4468;SDS011;2247;42.666;23.292;2022-11-20T02:54:42;1.43;;;1.33;;
4468;SDS011;2247;42.666;23.292;2022-11-20T02:57:10;1.10;;;1.00;;
4468;SDS011;2247;42.666;23.292;2022-11-20T02:59:37;1.70;;;1.20;;
4468;SDS011;2247;42.666;23.292;2022-11-20T03:02:04;2.77;;;1.40;;
4468;SDS011;2247;42.666;23.292;2022-11-20T03:04:32;3.03;;;1.70;;
4468;SDS011;2247;42.666;23.292;2022-11-20T03:06:59;5.23;;;1.43;;
4468;SDS011;2247;42.666;23.292;2022-11-20T03:09:26;2.80;;;1.37;;
4468;SDS011;2247;42.666;23.292;2022-11-20T03:11:53;3.17;;;1.20;;
4468;SDS011;2247;42.666;23.292;2022-11-20T03:14:22;6.40;;;1.60;;
4468;SDS011;2247;42.666;23.292;2022-11-20T03:16:49;3.43;;;1.57;;
4468;SDS011;2247;42.666;23.292;2022-11-20T03:19:15;4.83;;;1.33;;
4468;SDS011;2247;42.666;23.292;2022-11-20T03:21:43;7.80;;;1.50;;
4468;SDS011;2247;42.666;23.292;2022-11-20T03:24:10;3.50;;;1.60;;
4468;SDS011;2247;42.666;23.292;2022-11-20T03:26:38;1.73;;;1.20;;
4468;SDS011;2247;42.666;23.292;2022-11-20T03:29:06;1.90;;;1.10;;
4468;SDS011;2247;42.666;23.292;2022-11-20T03:31:36;1.63;;;1.30;;
4468;SDS011;2247;42.666;23.292;2022-11-20T03:34:06;2.43;;;1.07;;
4468;SDS011;2247;42.666;23.292;2022-11-20T03:36:33;1.03;;;1.03;;
4468;SDS011;2247;42.666;23.292;2022-11-20T03:39:00;1.10;;;1.00;;
4468;SDS011;2247;42.666;23.292;2022-11-20T03:41:28;2.70;;;1.27;;
4468;SDS011;2247;42.666;23.292;2022-11-20T03:43:58;1.60;;;1.30;;
4468;SDS011;2247;42.666;23.292;2022-11-20T03:46:26;3.00;;;1.20;;
4468;SDS011;2247;42.666;23.292;2022-11-20T03:48:56;1.63;;;1.00;;
4468;SDS011;2247;42.666;23.292;2022-11-20T03:51:24;6.00;;;1.43;;
4468;SDS011;2247;42.666;23.292;2022-11-20T03:53:53;1.67;;;1.30;;
4468;SDS011;2247;42.666;23.292;2022-11-20T03:56:22;2.07;;;1.20;;
4468;SDS011;2247;42.666;23.292;2022-11-20T03:58:50;2.50;;;1.13;;
4468;SDS011;2247;42.666;23.292;2022-11-20T04:01:18;8.97;;;1.30;;
4468;SDS011;2247;42.666;23.292;2022-11-20T04:03:47;4.27;;;1.70;;
4468;SDS011;2247;42.666;23.292;2022-11-20T04:06:17;4.47;;;1.17;;
4468;SDS011;2247;42.666;23.292;2022-11-20T04:08:46;3.53;;;1.00;;
4468;SDS011;2247;42.666;23.292;2022-11-20T04:11:14;1.30;;;1.10;;
4468;SDS011;2247;42.666;23.292;2022-11-20T04:13:45;1.23;;;1.00;;
4468;SDS011;2247;42.666;23.292;2022-11-20T04:16:13;4.70;;;1.47;;
4468;SDS011;2247;42.666;23.292;2022-11-20T04:18:41;4.33;;;1.20;;
4468;SDS011;2247;42.666;23.292;2022-11-20T04:21:08;3.27;;;1.10;;
4468;SDS011;2247;42.666;23.292;2022-11-20T04:23:37;1.13;;;0.90;;
4468;SDS011;2247;42.666;23.292;2022-11-20T04:26:05;3.27;;;1.10;;
4468;SDS011;2247;42.666;23.292;2022-11-20T04:28:34;5.17;;;1.30;;
4468;SDS011;2247;42.666;23.292;2022-11-20T04:31:02;2.60;;;1.10;;
4468;SDS011;2247;42.666;23.292;2022-11-20T04:33:30;2.10;;;1.30;;
4468;SDS011;2247;42.666;23.292;2022-11-20T04:35:59;2.67;;;1.33;;
4468;SDS011;2247;42.666;23.292;2022-11-20T04:38:28;4.37;;;1.10;;
4468;SDS011;2247;42.666;23.292;2022-11-20T04:40:57;2.60;;;1.00;;
4468;SDS011;2247;42.666;23.292;2022-11-20T04:43:25;2.40;;;1.30;;
4468;SDS011;2247;42.666;23.292;2022-11-20T04:45:52;2.83;;;1.30;;
4468;SDS011;2247;42.666;23.292;2022-11-20T04:48:19;1.67;;;1.17;;
4468;SDS011;2247;42.666;23.292;2022-11-20T04:50:47;2.40;;;1.27;;
4468;SDS011;2247;42.666;23.292;2022-11-20T04:53:14;2.27;;;1.07;;
4468;SDS011;2247;42.666;23.292;2022-11-20T04:55:41;3.57;;;1.30;;
4468;SDS011;2247;42.666;23.292;2022-11-20T04:58:10;2.50;;;1.20;;
4468;SDS011;2247;42.666;23.292;2022-11-20T05:00:37;2.40;;;1.00;;
4468;SDS011;2247;42.666;23.292;2022-11-20T05:03:04;5.40;;;1.17;;
4468;SDS011;2247;42.666;23.292;2022-11-20T05:05:31;2.17;;;1.27;;
4468;SDS011;2247;42.666;23.292;2022-11-20T05:08:00;1.80;;;1.10;;
4468;SDS011;2247;42.666;23.292;2022-11-20T05:10:27;1.93;;;1.10;;
4468;SDS011;2247;42.666;23.292;2022-11-20T05:12:54;2.53;;;1.10;;
4468;SDS011;2247;42.666;23.292;2022-11-20T05:15:24;1.67;;;0.90;;
4468;SDS011;2247;42.666;23.292;2022-11-20T05:17:52;2.50;;;1.00;;
4468;SDS011;2247;42.666;23.292;2022-11-20T05:20:19;1.10;;;1.03;;
4468;SDS011;2247;42.666;23.292;2022-11-20T05:22:46;1.10;;;0.90;;
4468;SDS011;2247;42.666;23.292;2022-11-20T05:25:13;2.43;;;1.00;;
4468;SDS011;2247;42.666;23.292;2022-11-20T05:27:41;1.10;;;0.93;;
4468;SDS011;2247;42.666;23.292;2022-11-20T05:30:08;2.57;;;1.00;;
4468;SDS011;2247;42.666;23.292;2022-11-20T05:32:38;2.53;;;1.20;;
4468;SDS011;2247;42.666;23.292;2022-11-20T05:35:05;4.93;;;1.10;;
4468;SDS011;2247;42.666;23.292;2022-11-20T05:37:32;2.27;;;1.20;;
4468;SDS011;2247;42.666;23.292;2022-11-20T05:39:59;7.33;;;1.50;;
4468;SDS011;2247;42.666;23.292;2022-11-20T05:42:27;2.50;;;1.00;;
4468;SDS011;2247;42.666;23.292;2022-11-20T05:44:57;1.43;;;1.20;;
4468;SDS011;2247;42.666;23.292;2022-11-20T05:47:24;4.07;;;1.33;;
4468;SDS011;2247;42.666;23.292;2022-11-20T05:49:53;3.60;;;1.33;;
4468;SDS011;2247;42.666;23.292;2022-11-20T05:52:20;1.00;;;0.90;;
4468;SDS011;2247;42.666;23.292;2022-11-20T05:54:48;1.23;;;1.13;;
4468;SDS011;2247;42.666;23.292;2022-11-20T05:57:15;1.23;;;1.00;;
4468;SDS011;2247;42.666;23.292;2022-11-20T05:59:43;3.37;;;1.10;;
4468;SDS011;2247;42.666;23.292;2022-11-20T06:02:10;6.27;;;1.47;;
4468;SDS011;2247;42.666;23.292;2022-11-20T06:04:37;2.00;;;0.80;;
4468;SDS011;2247;42.666;23.292;2022-11-20T06:07:16;4.67;;;1.10;;
4468;SDS011;2247;42.666;23.292;2022-11-20T06:10:00;6.77;;;1.10;;
4468;SDS011;2247;42.666;23.292;2022-11-20T06:20:24;2.43;;;1.13;;
4468;SDS011;2247;42.666;23.292;2022-11-20T06:25:28;6.10;;;1.40;;
4468;SDS011;2247;42.666;23.292;2022-11-20T06:27:55;1.77;;;1.40;;
4468;SDS011;2247;42.666;23.292;2022-11-20T06:30:22;5.00;;;1.27;;
4468;SDS011;2247;42.666;23.292;2022-11-20T06:32:49;2.40;;;1.20;;
4468;SDS011;2247;42.666;23.292;2022-11-20T06:35:17;4.83;;;1.30;;
4468;SDS011;2247;42.666;23.292;2022-11-20T06:37:44;2.13;;;1.10;;
4468;SDS011;2247;42.666;23.292;2022-11-20T06:40:12;3.30;;;1.53;;
4468;SDS011;2247;42.666;23.292;2022-11-20T06:42:41;2.20;;;1.20;;
4468;SDS011;2247;42.666;23.292;2022-11-20T06:47:42;5.20;;;1.37;;
4468;SDS011;2247;42.666;23.292;2022-11-20T06:50:09;1.20;;;0.90;;
4468;SDS011;2247;42.666;23.292;2022-11-20T06:52:50;1.30;;;1.00;;
4468;SDS011;2247;42.666;23.292;2022-11-20T06:55:17;2.00;;;1.20;;
4468;SDS011;2247;42.666;23.292;2022-11-20T06:57:45;2.00;;;1.30;;
4468;SDS011;2247;42.666;23.292;2022-11-20T07:07:13;2.17;;;1.30;;
4468;SDS011;2247;42.666;23.292;2022-11-20T07:09:43;2.00;;;1.27;;
4468;SDS011;2247;42.666;23.292;2022-11-20T07:12:17;1.77;;;1.37;;
4468;SDS011;2247;42.666;23.292;2022-11-20T07:14:47;2.90;;;1.00;;
4468;SDS011;2247;42.666;23.292;2022-11-20T07:17:13;5.80;;;1.37;;
4468;SDS011;2247;42.666;23.292;2022-11-20T07:19:41;6.00;;;1.80;;
4468;SDS011;2247;42.666;23.292;2022-11-20T07:22:08;2.60;;;1.27;;
4468;SDS011;2247;42.666;23.292;2022-11-20T07:24:35;4.00;;;1.00;;
4468;SDS011;2247;42.666;23.292;2022-11-20T07:27:02;2.40;;;1.07;;
4468;SDS011;2247;42.666;23.292;2022-11-20T07:29:30;4.27;;;1.10;;
4468;SDS011;2247;42.666;23.292;2022-11-20T07:32:00;2.30;;;1.13;;
4468;SDS011;2247;42.666;23.292;2022-11-20T07:34:30;8.10;;;1.40;;
4468;SDS011;2247;42.666;23.292;2022-11-20T07:36:57;4.23;;;1.30;;
4468;SDS011;2247;42.666;23.292;2022-11-20T07:39:24;5.93;;;1.50;;
4468;SDS011;2247;42.666;23.292;2022-11-20T07:41:59;12.57;;;1.50;;
4468;SDS011;2247;42.666;23.292;2022-11-20T07:44:26;3.83;;;1.67;;
4468;SDS011;2247;42.666;23.292;2022-11-20T07:46:56;6.50;;;1.73;;
4468;SDS011;2247;42.666;23.292;2022-11-20T07:49:25;3.57;;;1.17;;
4468;SDS011;2247;42.666;23.292;2022-11-20T07:51:53;3.17;;;1.30;;
4468;SDS011;2247;42.666;23.292;2022-11-20T07:54:21;3.03;;;1.47;;
4468;SDS011;2247;42.666;23.292;2022-11-20T07:57:01;7.10;;;1.70;;
4468;SDS011;2247;42.666;23.292;2022-11-20T07:59:30;2.40;;;1.23;;
4468;SDS011;2247;42.666;23.292;2022-11-20T08:01:58;2.87;;;1.47;;
4468;SDS011;2247;42.666;23.292;2022-11-20T08:07:14;5.90;;;1.83;;
4468;SDS011;2247;42.666;23.292;2022-11-20T08:09:42;5.10;;;2.13;;
4468;SDS011;2247;42.666;23.292;2022-11-20T08:12:15;5.87;;;2.90;;
4468;SDS011;2247;42.666;23.292;2022-11-20T08:14:56;11.40;;;2.13;;
4468;SDS011;2247;42.666;23.292;2022-11-20T08:17:26;4.93;;;1.87;;
4468;SDS011;2247;42.666;23.292;2022-11-20T08:19:54;10.47;;;2.00;;
4468;SDS011;2247;42.666;23.292;2022-11-20T08:22:23;8.10;;;2.20;;
4468;SDS011;2247;42.666;23.292;2022-11-20T08:24:50;7.97;;;2.30;;
4468;SDS011;2247;42.666;23.292;2022-11-20T08:27:17;4.50;;;2.20;;
4468;SDS011;2247;42.666;23.292;2022-11-20T08:29:44;17.00;;;2.30;;
4468;SDS011;2247;42.666;23.292;2022-11-20T08:32:11;7.57;;;2.30;;
4468;SDS011;2247;42.666;23.292;2022-11-20T08:34:38;4.67;;;1.47;;
4468;SDS011;2247;42.666;23.292;2022-11-20T08:37:07;99.37;;;6.47;;
4468;SDS011;2247;42.666;23.292;2022-11-20T08:39:34;14.60;;;1.93;;
4468;SDS011;2247;42.666;23.292;2022-11-20T08:42:00;9.87;;;2.77;;
4468;SDS011;2247;42.666;23.292;2022-11-20T08:44:28;8.67;;;4.43;;
4468;SDS011;2247;42.666;23.292;2022-11-20T08:46:55;6.63;;;1.97;;
4468;SDS011;2247;42.666;23.292;2022-11-20T08:49:23;7.80;;;2.17;;
4468;SDS011;2247;42.666;23.292;2022-11-20T08:51:51;5.90;;;1.83;;
4468;SDS011;2247;42.666;23.292;2022-11-20T08:54:24;15.73;;;2.40;;
4468;SDS011;2247;42.666;23.292;2022-11-20T08:56:51;4.53;;;2.23;;
4468;SDS011;2247;42.666;23.292;2022-11-20T09:01:54;4.80;;;3.23;;
4468;SDS011;2247;42.666;23.292;2022-11-20T09:04:36;6.70;;;3.47;;
4468;SDS011;2247;42.666;23.292;2022-11-20T09:07:05;12.50;;;3.33;;
4468;SDS011;2247;42.666;23.292;2022-11-20T09:09:39;7.50;;;3.07;;
4468;SDS011;2247;42.666;23.292;2022-11-20T09:12:12;5.73;;;3.10;;
4468;SDS011;2247;42.666;23.292;2022-11-20T09:14:40;14.93;;;4.00;;
4468;SDS011;2247;42.666;23.292;2022-11-20T09:17:09;10.23;;;3.80;;
4468;SDS011;2247;42.666;23.292;2022-11-20T09:19:38;4.97;;;2.77;;
4468;SDS011;2247;42.666;23.292;2022-11-20T09:22:07;11.70;;;2.83;;
4468;SDS011;2247;42.666;23.292;2022-11-20T09:24:44;6.57;;;3.17;;
4468;SDS011;2247;42.666;23.292;2022-11-20T09:27:18;6.70;;;1.77;;
4468;SDS011;2247;42.666;23.292;2022-11-20T09:29:49;5.40;;;1.40;;
4468;SDS011;2247;42.666;23.292;2022-11-20T09:32:18;4.37;;;1.53;;
4468;SDS011;2247;42.666;23.292;2022-11-20T09:34:46;3.27;;;1.33;;
4468;SDS011;2247;42.666;23.292;2022-11-20T09:37:13;1.63;;;1.17;;
4468;SDS011;2247;42.666;23.292;2022-11-20T09:39:41;4.63;;;1.50;;
4468;SDS011;2247;42.666;23.292;2022-11-20T09:42:22;5.93;;;1.40;;
4468;SDS011;2247;42.666;23.292;2022-11-20T09:45:06;4.93;;;2.23;;
4468;SDS011;2247;42.666;23.292;2022-11-20T09:47:58;3.40;;;1.80;;
4468;SDS011;2247;42.666;23.292;2022-11-20T09:50:35;3.20;;;1.67;;
4468;SDS011;2247;42.666;23.292;2022-11-20T09:53:13;3.60;;;1.87;;
4468;SDS011;2247;42.666;23.292;2022-11-20T09:55:49;6.67;;;2.20;;
4468;SDS011;2247;42.666;23.292;2022-11-20T09:58:23;2.37;;;1.60;;
4468;SDS011;2247;42.666;23.292;2022-11-20T10:00:59;9.50;;;2.20;;
4468;SDS011;2247;42.666;23.292;2022-11-20T10:03:36;10.40;;;2.73;;
4468;SDS011;2247;42.666;23.292;2022-11-20T10:06:20;6.60;;;2.50;;
4468;SDS011;2247;42.666;23.292;2022-11-20T10:08:54;4.67;;;2.10;;
4468;SDS011;2247;42.666;23.292;2022-11-20T10:11:32;7.10;;;2.47;;
4468;SDS011;2247;42.666;23.292;2022-11-20T10:14:09;5.93;;;1.77;;
4468;SDS011;2247;42.666;23.292;2022-11-20T10:16:47;4.30;;;1.93;;
4468;SDS011;2247;42.666;23.292;2022-11-20T10:19:40;4.57;;;2.00;;
4468;SDS011;2247;42.666;23.292;2022-11-20T10:22:19;4.53;;;2.40;;
4468;SDS011;2247;42.666;23.292;2022-11-20T10:25:00;7.83;;;2.67;;
4468;SDS011;2247;42.666;23.292;2022-11-20T10:27:49;8.33;;;2.87;;
4468;SDS011;2247;42.666;23.292;2022-11-20T10:30:26;5.73;;;2.80;;
4468;SDS011;2247;42.666;23.292;2022-11-20T10:32:58;11.67;;;2.80;;
4468;SDS011;2247;42.666;23.292;2022-11-20T10:35:32;7.13;;;2.80;;
4468;SDS011;2247;42.666;23.292;2022-11-20T10:38:12;6.07;;;2.73;;
4468;SDS011;2247;42.666;23.292;2022-11-20T10:40:47;5.60;;;3.10;;
4468;SDS011;2247;42.666;23.292;2022-11-20T10:43:19;7.73;;;2.97;;
4468;SDS011;2247;42.666;23.292;2022-11-20T10:45:55;4.70;;;2.57;;
4468;SDS011;2247;42.666;23.292;2022-11-20T10:48:27;6.23;;;3.20;;
4468;SDS011;2247;42.666;23.292;2022-11-20T10:50:59;5.20;;;3.50;;
4468;SDS011;2247;42.666;23.292;2022-11-20T10:53:54;10.77;;;4.23;;
4468;SDS011;2247;42.666;23.292;2022-11-20T10:56:28;12.90;;;3.83;;
4468;SDS011;2247;42.666;23.292;2022-11-20T10:59:11;8.37;;;3.63;;
4468;SDS011;2247;42.666;23.292;2022-11-20T11:01:55;14.63;;;4.20;;
4468;SDS011;2247;42.666;23.292;2022-11-20T11:04:30;11.47;;;4.50;;
4468;SDS011;2247;42.666;23.292;2022-11-20T11:07:06;14.23;;;4.10;;
4468;SDS011;2247;42.666;23.292;2022-11-20T11:09:40;6.17;;;2.60;;
4468;SDS011;2247;42.666;23.292;2022-11-20T11:12:10;5.33;;;2.73;;
4468;SDS011;2247;42.666;23.292;2022-11-20T11:14:44;7.90;;;2.27;;
4468;SDS011;2247;42.666;23.292;2022-11-20T11:17:27;1.70;;;1.03;;
4468;SDS011;2247;42.666;23.292;2022-11-20T11:19:56;2.70;;;1.20;;
4468;SDS011;2247;42.666;23.292;2022-11-20T11:22:45;5.53;;;1.07;;
4468;SDS011;2247;42.666;23.292;2022-11-20T11:25:22;2.50;;;1.00;;
4468;SDS011;2247;42.666;23.292;2022-11-20T11:27:53;1.33;;;0.90;;
4468;SDS011;2247;42.666;23.292;2022-11-20T11:30:21;1.43;;;0.90;;
4468;SDS011;2247;42.666;23.292;2022-11-20T11:33:01;1.67;;;0.70;;
4468;SDS011;2247;42.666;23.292;2022-11-20T11:35:29;0.77;;;0.77;;
4468;SDS011;2247;42.666;23.292;2022-11-20T11:38:02;2.20;;;0.80;;
4468;SDS011;2247;42.666;23.292;2022-11-20T11:40:31;1.33;;;1.23;;
4468;SDS011;2247;42.666;23.292;2022-11-20T11:42:59;2.20;;;0.80;;
4468;SDS011;2247;42.666;23.292;2022-11-20T11:45:29;3.83;;;1.10;;
4468;SDS011;2247;42.666;23.292;2022-11-20T11:47:57;4.03;;;0.97;;
4468;SDS011;2247;42.666;23.292;2022-11-20T11:50:27;3.37;;;1.07;;
4468;SDS011;2247;42.666;23.292;2022-11-20T11:52:58;2.47;;;1.60;;
4468;SDS011;2247;42.666;23.292;2022-11-20T11:55:35;6.50;;;1.37;;
4468;SDS011;2247;42.666;23.292;2022-11-20T11:58:09;11.63;;;1.20;;
4468;SDS011;2247;42.666;23.292;2022-11-20T12:00:54;3.20;;;0.90;;
4468;SDS011;2247;42.666;23.292;2022-11-20T12:03:27;2.90;;;1.07;;
4468;SDS011;2247;42.666;23.292;2022-11-20T12:05:59;3.70;;;1.00;;
4468;SDS011;2247;42.666;23.292;2022-11-20T12:08:32;4.93;;;1.20;;
4468;SDS011;2247;42.666;23.292;2022-11-20T12:11:11;2.50;;;1.00;;
4468;SDS011;2247;42.666;23.292;2022-11-20T12:13:42;1.53;;;0.80;;
4468;SDS011;2247;42.666;23.292;2022-11-20T12:16:15;1.63;;;0.90;;
4468;SDS011;2247;42.666;23.292;2022-11-20T12:18:47;7.33;;;0.70;;
4468;SDS011;2247;42.666;23.292;2022-11-20T12:21:20;1.20;;;0.90;;
4468;SDS011;2247;42.666;23.292;2022-11-20T12:23:59;24.47;;;1.63;;
4468;SDS011;2247;42.666;23.292;2022-11-20T12:26:39;2.67;;;1.07;;
4468;SDS011;2247;42.666;23.292;2022-11-20T12:29:20;11.03;;;1.50;;
4468;SDS011;2247;42.666;23.292;2022-11-20T12:32:05;2.70;;;1.20;;
4468;SDS011;2247;42.666;23.292;2022-11-20T12:34:57;3.07;;;0.70;;
4468;SDS011;2247;42.666;23.292;2022-11-20T12:37:33;2.40;;;0.77;;
4468;SDS011;2247;42.666;23.292;2022-11-20T12:40:09;1.70;;;0.97;;
4468;SDS011;2247;42.666;23.292;2022-11-20T12:42:51;3.43;;;1.00;;
4468;SDS011;2247;42.666;23.292;2022-11-20T12:45:51;6.63;;;1.00;;
4468;SDS011;2247;42.666;23.292;2022-11-20T12:51:33;5.63;;;1.77;;
4468;SDS011;2247;42.666;23.292;2022-11-20T12:54:31;2.87;;;1.20;;
4468;SDS011;2247;42.666;23.292;2022-11-20T12:57:24;3.30;;;1.40;;
4468;SDS011;2247;42.666;23.292;2022-11-20T13:00:00;7.80;;;1.70;;
4468;SDS011;2247;42.666;23.292;2022-11-20T13:02:37;3.50;;;1.70;;
4468;SDS011;2247;42.666;23.292;2022-11-20T13:05:20;4.97;;;2.20;;
4468;SDS011;2247;42.666;23.292;2022-11-20T13:07:54;6.20;;;1.80;;
4468;SDS011;2247;42.666;23.292;2022-11-20T13:10:25;5.57;;;2.77;;
4468;SDS011;2247;42.666;23.292;2022-11-20T13:13:00;3.97;;;2.33;;
4468;SDS011;2247;42.666;23.292;2022-11-20T13:15:35;7.53;;;3.20;;
4468;SDS011;2247;42.666;23.292;2022-11-20T13:18:10;9.07;;;2.60;;
4468;SDS011;2247;42.666;23.292;2022-11-20T13:20:41;6.50;;;2.73;;
4468;SDS011;2247;42.666;23.292;2022-11-20T13:23:11;7.50;;;2.53;;
4468;SDS011;2247;42.666;23.292;2022-11-20T13:25:48;5.87;;;2.50;;
4468;SDS011;2247;42.666;23.292;2022-11-20T13:28:26;8.63;;;2.77;;
4468;SDS011;2247;42.666;23.292;2022-11-20T13:30:56;6.70;;;2.40;;
4468;SDS011;2247;42.666;23.292;2022-11-20T13:33:26;5.87;;;3.07;;
4468;SDS011;2247;42.666;23.292;2022-11-20T13:35:56;12.03;;;3.77;;
4468;SDS011;2247;42.666;23.292;2022-11-20T13:38:27;5.80;;;3.43;;
4468;SDS011;2247;42.666;23.292;2022-11-20T13:40:55;7.90;;;3.70;;
4468;SDS011;2247;42.666;23.292;2022-11-20T13:43:28;5.33;;;3.30;;
4468;SDS011;2247;42.666;23.292;2022-11-20T13:46:02;8.50;;;3.27;;
4468;SDS011;2247;42.666;23.292;2022-11-20T13:48:31;10.57;;;3.83;;
4468;SDS011;2247;42.666;23.292;2022-11-20T13:51:03;5.17;;;3.30;;
4468;SDS011;2247;42.666;23.292;2022-11-20T13:53:52;9.13;;;4.03;;
4468;SDS011;2247;42.666;23.292;2022-11-20T13:56:30;5.40;;;3.30;;
4468;SDS011;2247;42.666;23.292;2022-11-20T13:59:08;5.07;;;3.53;;
4468;SDS011;2247;42.666;23.292;2022-11-20T14:01:48;7.73;;;4.30;;
4468;SDS011;2247;42.666;23.292;2022-11-20T14:04:20;5.97;;;3.37;;
4468;SDS011;2247;42.666;23.292;2022-11-20T14:06:53;7.10;;;3.93;;
4468;SDS011;2247;42.666;23.292;2022-11-20T14:09:27;8.70;;;4.07;;
4468;SDS011;2247;42.666;23.292;2022-11-20T14:11:55;16.90;;;5.00;;
4468;SDS011;2247;42.666;23.292;2022-11-20T14:14:23;8.97;;;4.83;;
4468;SDS011;2247;42.666;23.292;2022-11-20T14:16:51;13.27;;;5.90;;
4468;SDS011;2247;42.666;23.292;2022-11-20T14:19:28;10.40;;;4.87;;
4468;SDS011;2247;42.666;23.292;2022-11-20T14:22:09;5.40;;;4.40;;
4468;SDS011;2247;42.666;23.292;2022-11-20T14:24:45;6.43;;;3.33;;
4468;SDS011;2247;42.666;23.292;2022-11-20T14:27:13;11.53;;;2.90;;
4468;SDS011;2247;42.666;23.292;2022-11-20T14:29:41;5.47;;;2.37;;
4468;SDS011;2247;42.666;23.292;2022-11-20T14:32:09;3.80;;;2.37;;
4468;SDS011;2247;42.666;23.292;2022-11-20T14:34:38;4.80;;;2.43;;
4468;SDS011;2247;42.666;23.292;2022-11-20T14:37:09;7.80;;;2.63;;
4468;SDS011;2247;42.666;23.292;2022-11-20T14:39:40;5.63;;;2.20;;
4468;SDS011;2247;42.666;23.292;2022-11-20T14:42:16;2.20;;;2.00;;
4468;SDS011;2247;42.666;23.292;2022-11-20T14:44:44;4.50;;;2.27;;
4468;SDS011;2247;42.666;23.292;2022-11-20T14:47:12;3.43;;;2.60;;
4468;SDS011;2247;42.666;23.292;2022-11-20T14:49:41;7.90;;;2.83;;
4468;SDS011;2247;42.666;23.292;2022-11-20T14:52:13;4.03;;;2.30;;
4468;SDS011;2247;42.666;23.292;2022-11-20T14:54:46;3.80;;;2.40;;
4468;SDS011;2247;42.666;23.292;2022-11-20T14:57:23;3.77;;;2.27;;
4468;SDS011;2247;42.666;23.292;2022-11-20T15:00:02;4.83;;;2.70;;
4468;SDS011;2247;42.666;23.292;2022-11-20T15:02:30;4.67;;;3.30;;
4468;SDS011;2247;42.666;23.292;2022-11-20T15:04:59;3.80;;;2.60;;
4468;SDS011;2247;42.666;23.292;2022-11-20T15:07:28;2.73;;;2.00;;
4468;SDS011;2247;42.666;23.292;2022-11-20T15:09:59;2.77;;;1.90;;
4468;SDS011;2247;42.666;23.292;2022-11-20T15:12:28;7.83;;;2.43;;
4468;SDS011;2247;42.666;23.292;2022-11-20T15:14:57;2.50;;;2.00;;
4468;SDS011;2247;42.666;23.292;2022-11-20T15:17:24;4.30;;;2.27;;
4468;SDS011;2247;42.666;23.292;2022-11-20T15:19:51;7.43;;;2.23;;
4468;SDS011;2247;42.666;23.292;2022-11-20T15:22:19;6.63;;;2.50;;
4468;SDS011;2247;42.666;23.292;2022-11-20T15:24:47;8.57;;;3.23;;
4468;SDS011;2247;42.666;23.292;2022-11-20T15:27:14;3.33;;;2.83;;
4468;SDS011;2247;42.666;23.292;2022-11-20T15:29:42;12.10;;;4.83;;
4468;SDS011;2247;42.666;23.292;2022-11-20T15:32:10;3.87;;;3.10;;
4468;SDS011;2247;42.666;23.292;2022-11-20T15:34:37;3.53;;;2.77;;
4468;SDS011;2247;42.666;23.292;2022-11-20T15:37:04;3.53;;;2.70;;
4468;SDS011;2247;42.666;23.292;2022-11-20T15:39:34;3.53;;;2.20;;
4468;SDS011;2247;42.666;23.292;2022-11-20T15:42:01;3.20;;;2.30;;
4468;SDS011;2247;42.666;23.292;2022-11-20T15:44:28;2.90;;;2.17;;
4468;SDS011;2247;42.666;23.292;2022-11-20T15:46:56;6.00;;;3.03;;
4468;SDS011;2247;42.666;23.292;2022-11-20T15:49:24;4.53;;;2.23;;
4468;SDS011;2247;42.666;23.292;2022-11-20T15:51:51;4.60;;;2.30;;
4468;SDS011;2247;42.666;23.292;2022-11-20T15:54:20;4.55;;;2.25;;